Thomas Baumgartner

Chefscout - Red Bull Salzburg
4 Apr 2027
Sonntag
Verarbeitung

Persönlichkeit

Anpassungsfähigkeit (7) Ehrgeiz (12) Kontroverse (6) Loyalität (16) Druck (15) Professionalität (13) Fairness (4) Temperament (8)

Profil

Trainerstil Demokratisch
Lizenz Kontinentale Pro
Entschlossenheit 10
Menschenführung 11
Motivation 12
Disziplin 9
Arbeitszufriedenheit
49%
Ermüdung
0%
Rolle Chefscout
Gehalt 48.4K p/W
Vertrag 14.03.2030

Leistung

Verhalten Normal
Trainingseffektivität
30%
Spielerentwicklung
45%
Verletzungsprävention
60%
Taktische Umsetzung
75%

Letzte Ereignisse

Nahm an einer Scouting-Besprechung teil jetzt
Nahm an einer Scouting-Besprechung teil jetzt
Nahm an einer Scouting-Besprechung teil jetzt
Nahm an einer Scouting-Besprechung teil jetzt
Spieler begutachtet jetzt
Spieler begutachtet jetzt
Spieler begutachtet jetzt
Spieler begutachtet jetzt

Aktuell beobachtet

140
Spieler Verein Status Fähigkeit Vertrauen Beobachtet Zuletzt beobachtet Letzte Stimme
Alex Meret Napoli Aktiv 151 / 150 40% 2 03.04.2027 -
Kostantis Tzolakis Hull City Aktiv 151 / 141 40% 3 03.04.2027 -
Vladan Kovačević Norwich City Aktiv 116 / 119 40% 3 02.04.2027 -
Michele Cerofolini Bari Aktiv 128 / 123 40% 1 02.04.2027 -
Elia Caprile Cagliari Aktiv 140 / 143 40% 4 01.04.2027 -
Michael Cooper Sheffield United Aktiv 134 / 133 40% 2 01.04.2027 -
Nathan Trott Cardiff City Aktiv 123 / 127 40% 3 31.03.2027 -
Mads Hermansen West Ham United Aktiv 131 / 138 40% 3 31.03.2027 -
Milan van Ewijk Coventry City Aktiv 134 / 132 40% 2 30.03.2027 -
Nicolas Schmid Portsmouth Aktiv 124 / 122 40% 1 30.03.2027 -
Lorenzo Palmisani Frosinone Aktiv 132 / 130 40% 1 30.03.2027 -
Finn Azaz Southampton Aktiv 121 / 126 40% 1 30.03.2027 -
Afimico Pululu Al-Hazem Aktiv 129 / 131 40% 6 29.03.2027 Beobachten
Robin Fellhauer FC Augsburg Aktiv 144 / 135 40% 1 29.03.2027 -
Edoardo Corvi Parma Aktiv 125 / 133 40% 3 27.03.2027 -
Simone Scuffet Pisa Aktiv 134 / 127 40% 1 27.03.2027 -
Jakub Stolarczyk Leicester City Aktiv 146 / 139 40% 5 26.03.2027 -
Ali Ahmed Norwich City Aktiv 135 / 125 40% 2 26.03.2027 -
Callum O'Hare Sheffield United Aktiv 124 / 128 40% 1 26.03.2027 -
Max O'Leary West Bromwich Albion Aktiv 122 / 127 40% 5 25.03.2027 -
Anthony Patterson Wrexham Aktiv 123 / 130 40% 3 24.03.2027 -
Sam Tickle Wigan Athletic Aktiv 135 / 131 40% 2 24.03.2027 -
Justin Bijlow Genoa Aktiv 157 / 147 40% 3 22.03.2027 -
Egil Selvik Watford Aktiv 135 / 125 40% 1 22.03.2027 -
Teboho Williams SuperSport United Aktiv 121 / 118 40% 1 21.03.2027 -
Pablo Solari Spartak Moscow Aktiv 138 / 132 40% 1 21.03.2027 -
Dean Henderson Crystal Palace Aktiv 142 / 148 40% 3 20.03.2027 -
Viktor Johansson Stoke City Aktiv 142 / 134 40% 2 20.03.2027 -
Sipho Chaine Orlando Pirates Aktiv 123 / 117 40% 1 18.03.2027 -
Arijanet Murić Sassuolo Aktiv 138 / 140 40% 4 17.03.2027 -
Ali Soliman Masr El Makasa Aktiv 134 / 131 40% 1 17.03.2027 -
Moussa Diaby Al-Ittihad Aktiv 147 / 146 40% 1 17.03.2027 -
Sayed Abu Farchi Maccabi Tel Aviv Aktiv 109 / 128 40% 1 16.03.2027 -
Oumar Camara Vitoria Guimaraes Aktiv 111 / 133 40% 1 16.03.2027 -
Oufa Shobeir ES Setif Aktiv 130 / 128 40% 2 14.03.2027 -
Lukas Jensen Millwall Aktiv 128 / 119 40% 5 12.03.2027 -
Ruslan Neshcheret Dynamo Kyiv Aktiv 125 / 120 40% 4 11.03.2027 -
Josh Keeley Luton Town Aktiv 118 / 125 40% 3 10.03.2027 -
Marquinhos Spartak Moscow Aktiv 143 / 128 40% 1 10.03.2027 -
Marco Carnesecchi Atalanta Aktiv 155 / 157 40% 3 07.03.2027 -
Godbless Ayeke New Edubiase United Aktiv 85 / 78 40% 1 05.03.2027 -
Michael Noumon Heart of Lions Aktiv 75 / 79 40% 1 05.03.2027 -
Đorđe Petrović Bournemouth Aktiv 142 / 149 40% 2 04.03.2027 -
Morgan Whittaker Middlesbrough Aktiv 129 / 132 40% 1 04.03.2027 -
Musa Barrow Al-Khaleej Aktiv 131 / 135 40% 1 04.03.2027 -
Majid Dejagah Gostaresh Foulad Aktiv 123 / 123 40% 3 28.02.2027 -
Soufiane Rahimi Al Ain Aktiv 123 / 138 40% 1 28.02.2027 -
Demba Thiam Monza Aktiv 119 / 121 40% 1 27.02.2027 -
Balázs Tóth Blackburn Rovers Aktiv 117 / 124 40% 2 26.02.2027 Mehr Infos nötig
Facundo Torres Shakhtar Aktiv 145 / 134 40% 1 25.02.2027 -
Malcom Al Jazira Aktiv 164 / 149 40% 1 25.02.2027 -
Jacob Widell Zetterström Derby County Aktiv 131 / 129 40% 1 24.02.2027 -
Percy Erasmus SuperSport United Aktiv 122 / 129 40% 7 21.02.2027 -
Radek Vítek Middlesbrough Aktiv 143 / 142 40% 1 21.02.2027 -
Helinho Toluca Aktiv 138 / 133 40% 1 21.02.2027 -
James Trafford Leeds United Aktiv 138 / 142 40% 2 18.02.2027 -
Jamie Cumming Oxford United Abgelehnt 118 / 127 40% 1 18.02.2027 Mehr Infos nötig
Domagoj Drožđek Tractor Aktiv 127 / 123 40% 1 18.02.2027 -
Gonzalo Plata Dinamo Moscow Aktiv 136 / 130 40% 5 13.02.2027 -
Carl Rushworth Coventry City Aktiv 127 / 134 40% 2 13.02.2027 -
Tom Fellows Southampton Aktiv 122 / 134 40% 1 13.02.2027 -
Grégoire Coudert Burnley Aktiv 135 / 133 40% 1 13.02.2027 -
Svetoslav Vutsov Levski Aktiv 137 / 123 40% 1 13.02.2027 -
Mehdi Ghayedi Al Nasr Aktiv 134 / 128 40% 2 09.02.2027 -
Mandla Jali SuperSport United Aktiv 109 / 119 40% 1 05.02.2027 -
Robin Roefs Sunderland Abgelehnt 139 / 145 40% 2 03.02.2027 Mehr Infos nötig
Daniil Khudyakov Sturm Graz Aktiv 115 / 119 40% 2 30.01.2027 -
Maduka Okoye Udinese Aktiv 127 / 139 40% 1 29.01.2027 -
Max O'Leary West Bromwich Albion Verloren 121 / 124 40% 1 26.01.2027 -
Can Bozdogan Lazio Aktiv 118 / 128 40% 1 17.01.2027 -
Kilian Fischer VfL Wolfsburg Aktiv 137 / 126 40% 1 17.01.2027 -
Rúben Neves Al-Hilal Aktiv 157 / 149 40% 3 14.01.2027 -
Tyrell Malacia Leicester City Abgelehnt 132 / 136 40% 1 14.01.2027 Mehr Infos nötig
Dara O'Shea Ipswich Town Aktiv 135 / 133 40% 1 13.01.2027 -
Shea Charles Southampton Aktiv 125 / 131 40% 1 13.01.2027 -
Ante Bajić SV Ried Verloren 102 / 113 55% 1 11.01.2027 -
Caoimhin Kelleher Brentford Aktiv 151 / 146 40% 1 11.01.2027 -
Edoardo Corvi Parma Verloren 132 / 127 40% 1 11.01.2027 -
Dennis Cirkin Queens Park Rangers Aktiv 131 / 130 40% 1 10.01.2027 -
Arjan Malić Sturm Graz Aktiv 107 / 124 55% 1 07.01.2027 -
Japhet Tanganga Sheffield United Aktiv 129 / 130 40% 1 04.01.2027 -
Lukas Klostermann RB Leipzig Aktiv 143 / 134 40% 1 04.01.2027 -
Florentino Luís Ipswich Town Aktiv 134 / 139 40% 1 03.01.2027 -
Ethan Galbraith Swansea City Aktiv 142 / 131 40% 1 02.01.2027 -
Harry Clarke Preston Aktiv 116 / 127 40% 1 02.01.2027 -
Bitello Dinamo Moscow Aktiv 135 / 135 68% 1 01.01.2027 Befürworten
João Félix Chelsea Aktiv 153 / 153 66% 1 01.01.2027 Befürworten
Luiz Henrique Zenit Verloren 142 / 143 68% 1 01.01.2027 Befürworten
Vladan Kovačević Norwich City Verloren 125 / 121 40% 1 01.01.2027 -
Sam Tickle Wigan Athletic Verloren 134 / 125 40% 1 01.01.2027 -
Franko Kovačević Ferencvaros Aktiv 110 / 114 40% 1 30.12.2026 -
Adnan Courtois KV Oostende Aktiv 120 / 132 40% 5 29.12.2026 -
Joe Gelhardt Hull City Aktiv 137 / 135 40% 1 28.12.2026 -
Rumarn Burrell Queens Park Rangers Aktiv 118 / 122 40% 1 28.12.2026 -
Mihailo Ivanović Millwall Aktiv 112 / 123 40% 1 24.12.2026 -
Santiago Mina VfL Wolfsburg Aktiv 131 / 145 40% 2 20.12.2026 -
Evidence Makgopa Orlando Pirates Aktiv 112 / 116 40% 1 20.12.2026 -
Matheus Davó Maccabi Netanya Aktiv 117 / 119 40% 1 19.12.2026 -
Felipe Augusto Zenit Aktiv 129 / 134 40% 3 18.12.2026 -
Moses Cobnan Krasnodar Aktiv 109 / 114 40% 2 16.12.2026 -
Mahmoud Al Bloushi Al Shabab Aktiv 163 / 150 40% 2 16.12.2026 -
Kauã Elias Shakhtar Aktiv 132 / 136 40% 1 15.12.2026 -
Exequiel Zeballos Boca Juniors Aktiv 126 / 131 40% 1 10.12.2026 -
Ignacio Russo Tigre Aktiv 125 / 131 40% 1 09.12.2026 -
Rok Zajc NK Domzale Aktiv 124 / 125 40% 4 08.12.2026 Beobachten
Luciano Gondou CSKA Moscow Aktiv 132 / 131 40% 2 08.12.2026 Mehr Infos nötig
Brayan Gil Baltika Aktiv 131 / 123 40% 3 07.12.2026 Beobachten
Everton Bala Levski Aktiv 137 / 126 40% 7 05.12.2026 -
Ammar Ramadan DAC Dunajska Streda Aktiv 122 / 120 40% 5 04.12.2026 -
Ashkan Hajsafi Gostaresh Foulad Aktiv 113 / 123 40% 3 04.12.2026 -
Ashkan Shojaei Siah Jamegan Aktiv 135 / 118 40% 4 03.12.2026 -
Jean-Luc Morin Tours Aktiv 135 / 144 40% 1 02.12.2026 -
Brayan León Mamelodi Sundowns Aktiv 114 / 117 40% 4 26.11.2026 -
Itumeleng Tau Ajax Cape Town Aktiv 107 / 114 40% 2 23.11.2026 -
Younes Ebnoutalib Eintracht Frankfurt Aktiv 131 / 127 40% 1 22.11.2026 -
Stav Toriel Hapoel Tel Aviv Aktiv 112 / 133 40% 3 21.11.2026 -
Derry Scherhant SC Freiburg Aktiv 137 / 130 40% 3 15.11.2026 -
Alasana Yirajang Slovan Bratislava Aktiv 103 / 122 40% 1 05.11.2026 -
Amir Hossein Hosseinzadeh Tractor Aktiv 108 / 124 40% 2 28.10.2026 -
Daniel Karlsbakk Sarpsborg 08 Aktiv 111 / 119 40% 1 27.10.2026 -
Dor Turgeman New England Revolution Aktiv 134 / 125 40% 1 20.10.2026 -
Seedy Jatta Sturm Graz Aktiv 128 / 123 40% 2 14.10.2026 -
Juan Manuel Boselli Krasnodar Aktiv 132 / 121 40% 1 13.10.2026 -
Yegor Golenkov Rostov Aktiv 113 / 114 40% 1 08.10.2026 -
Luther Zwane Platinum Stars Aktiv 96 / 106 40% 1 05.10.2026 -
Nahuel Ulariaga Al Ahli Aktiv 103 / 122 40% 1 05.10.2026 -
Manfred Ugalde Spartak Moscow Aktiv 118 / 130 40% 2 04.10.2026 -
Abdullah Juma Al Ahli Aktiv 117 / 134 40% 1 28.09.2026 -
Camilo Durán Bloemfontein Celtic Aktiv 108 / 117 40% 1 27.09.2026 -
Tamerlan Musaev CSKA Moscow Aktiv 117 / 114 40% 3 25.09.2026 -
Armstrong Oko-Flex Levski Aktiv 106 / 116 40% 1 16.09.2026 -
Ola Brynhildsen Bodo/Glimt Aktiv 108 / 122 40% 1 13.09.2026 -
Dávid Ďuriš Rosenborg Aktiv 120 / 115 40% 1 13.09.2026 -
Dominik Baumgartner Mattersburg Aktiv 91 / 111 40% 1 11.09.2026 -
Peter Christiansen Viking Aktiv 122 / 117 40% 1 09.09.2026 -
Xaver Lainer Mattersburg Aktiv 117 / 125 55% 1 31.08.2026 -
Radek Šiler Podbrezova Aktiv 111 / 115 40% 1 31.08.2026 -
Alexandr Maximenko Spartak Moscow Aktiv 116 / 122 40% 1 25.08.2026 -
Mamour N'Diaye Sarpsborg 08 Aktiv 93 / 125 40% 1 23.08.2026 -
Boris Matić Wolfsberger AC Aktiv 103 / 122 40% 1 03.08.2026 -